This is the latest recevied weather packets stored in our database for station/object Riedlingn. If no packets are shown the sender has not sent any weather packets the latest 10 day(s).
| Time | Temp. | Humidity | Pressure | Rain* | Wind** | Luminosity | Snow |
|---|---|---|---|---|---|---|---|
| 1787610731 | 17.22° C | 58% | 1016.3 hPa | 0 mm | - | - | - |
| 1787608931 | 17.22° C | 57% | 1016.9 hPa | 0 mm | - | - | - |
| 1787607132 | 17.78° C | 57% | 1017.1 hPa | 0 mm | - | - | - |
| 1787605336 | 17.78° C | 58% | 1017.3 hPa | 0 mm | - | - | - |
| 1787603530 | 17.78° C | 58% | 1017.5 hPa | 0 mm | - | - | - |
| 1787601731 | 17.78° C | 59% | 1017.9 hPa | 0 mm | - | - | - |
| 1787599931 | 18.33° C | 58% | 1018.5 hPa | 0 mm | - | - | - |
| 1787598131 | 18.89° C | 57% | 1018.8 hPa | 0 mm | - | - | - |
| 1787596330 | 19.44° C | 56% | 1018.4 hPa | 0 mm | - | - | - |
| 1787594531 | 20.56° C | 54% | 1018.5 hPa | 0 mm | - | - | - |
| 1787592731 | 21.67° C | 53% | 1018.3 hPa | 0 mm | - | - | - |
| 1787590931 | 21.67° C | 51% | 1018.6 hPa | 0 mm | - | - | - |
| 1787589130 | 21.67° C | 51% | 1019.2 hPa | 0 mm | - | - | - |
| 1787587330 | 22.22° C | 51% | 1019.5 hPa | 0 mm | - | - | - |
| 1787585530 | 23.33° C | 49% | 1020.4 hPa | 0 mm | - | - | - |
| 1787583731 | 23.33° C | 47% | 1020.5 hPa | 0 mm | - | - | - |
| 1787581930 | 23.89° C | 46% | 1020.9 hPa | 0 mm | - | - | - |
| 1787580131 | 24.44° C | 45% | 1020.9 hPa | 0 mm | - | - | - |
| 1787578331 | 24.44° C | 45% | 1021.5 hPa | 0 mm | - | - | - |
| 1787576530 | 23.89° C | 46% | 1021.9 hPa | 0 mm | - | - | - |
| 1787574730 | 23.89° C | 44% | 1022.4 hPa | 0 mm | - | - | - |
| 1787572930 | 22.78° C | 47% | 1022.6 hPa | 0 mm | - | - | - |
| 1787571130 | 22.22° C | 50% | 1022.9 hPa | 0 mm | - | - | - |
| 1787569330 | 21.67° C | 52% | 1023.2 hPa | 0 mm | - | - | - |
| 1787567530 | 21.11° C | 55% | 1023.7 hPa | 0 mm | - | - | - |
* Rain since midnight (hover to see other rain measurements)
** Current wind speed in m/s (hover to see current wind gust speed)